createdAt,value
2019-01-16T00:00:04.049Z,5.81
2019-01-16T00:05:04.100Z,5.81
2019-01-16T00:10:05.105Z,5.81
2019-01-16T00:15:04.094Z,5.81
2019-01-16T00:20:05.079Z,5.88
2019-01-16T00:25:04.067Z,5.88
2019-01-16T00:30:04.107Z,5.88
2019-01-16T00:35:04.121Z,5.88
2019-01-16T00:40:04.094Z,5.88
2019-01-16T00:45:04.090Z,5.88
2019-01-16T00:50:04.094Z,5.88
2019-01-16T00:55:04.093Z,5.88
2019-01-16T01:00:04.092Z,5.88
2019-01-16T01:05:04.088Z,5.88
2019-01-16T01:10:04.083Z,5.88
2019-01-16T01:15:04.102Z,5.88
2019-01-16T01:20:04.119Z,5.88
2019-01-16T01:25:04.092Z,5.88
2019-01-16T01:30:04.229Z,5.94
2019-01-16T01:35:04.098Z,5.88
2019-01-16T01:40:04.102Z,5.88
2019-01-16T01:45:04.094Z,5.88
2019-01-16T01:50:04.106Z,5.81
2019-01-16T01:55:04.116Z,5.88
2019-01-16T02:00:04.095Z,5.88
2019-01-16T02:05:04.095Z,5.81
2019-01-16T02:10:04.113Z,5.88
2019-01-16T02:15:04.095Z,5.81
2019-01-16T04:45:04.150Z,5.5
2019-01-16T04:50:04.182Z,5.5
2019-01-16T04:55:04.145Z,5.5
2019-01-16T05:00:04.166Z,5.5
2019-01-16T05:05:04.154Z,5.5
2019-01-16T05:10:04.163Z,5.5
2019-01-16T05:15:04.177Z,5.5
2019-01-16T05:20:04.153Z,5.5
2019-01-16T05:25:04.169Z,5.5
2019-01-16T05:30:04.199Z,5.5
2019-01-16T05:35:04.204Z,5.38
2019-01-16T05:40:04.168Z,5.31
2019-01-16T05:45:04.168Z,5.25
2019-01-16T05:50:04.175Z,5.19
2019-01-16T05:55:04.167Z,5.13
2019-01-16T06:00:04.170Z,5.06
2019-01-16T06:05:04.193Z,5
2019-01-16T06:10:04.183Z,5
2019-01-16T06:15:04.179Z,5.06
2019-01-16T06:20:04.225Z,5.06
2019-01-16T06:25:04.186Z,5.13
2019-01-16T06:30:04.202Z,5.13
2019-01-16T06:35:04.227Z,5.13
2019-01-16T06:40:04.199Z,5.13
2019-01-16T06:45:04.199Z,5.19
2019-01-16T06:50:04.195Z,5.13
2019-01-16T06:55:04.186Z,5.13
2019-01-16T07:00:04.194Z,5.19
2019-01-16T07:05:04.205Z,5.19
2019-01-16T07:10:04.188Z,5.19
2019-01-16T07:15:04.197Z,5.19
2019-01-16T07:20:09.531Z,5.19
2019-01-16T07:25:04.187Z,5.13
2019-01-16T07:30:04.207Z,5.13
2019-01-16T07:35:04.229Z,5.06
2019-01-16T07:40:04.195Z,5.06
2019-01-16T07:45:04.398Z,5.06
2019-01-16T07:50:04.238Z,5.06
2019-01-16T07:55:04.265Z,5.06
2019-01-16T08:00:04.178Z,5.06
2019-01-16T08:05:04.177Z,5.06
2019-01-16T08:10:04.230Z,5.06
2019-01-16T08:15:04.215Z,5.25
2019-01-16T08:20:04.213Z,5.31
2019-01-16T08:25:04.268Z,5.44
2019-01-16T08:30:04.197Z,5.44
2019-01-16T08:35:04.229Z,5.56
2019-01-16T08:40:04.254Z,5.63
2019-01-16T08:45:04.237Z,5.69
2019-01-16T08:50:04.275Z,5.69
2019-01-16T08:55:04.272Z,5.75
2019-01-16T09:00:04.228Z,5.81
2019-01-16T09:05:04.265Z,5.81
2019-01-16T09:10:04.245Z,5.81
2019-01-16T09:15:04.238Z,5.81
2019-01-16T09:20:04.229Z,5.88
2019-01-16T09:25:04.241Z,5.88
2019-01-16T09:30:04.293Z,5.94
2019-01-16T09:35:04.202Z,5.94
2019-01-16T09:40:04.247Z,5.94
2019-01-16T09:45:04.210Z,5.94
2019-01-16T09:50:04.249Z,5.94
2019-01-16T09:55:04.258Z,5.94
2019-01-16T10:00:04.249Z,6
2019-01-16T10:05:04.291Z,6.06
2019-01-16T10:10:04.283Z,6.06
2019-01-16T10:15:04.277Z,6.06
2019-01-16T10:20:04.224Z,6.06
2019-01-16T10:25:04.254Z,6.06
2019-01-16T10:30:04.270Z,6.06
2019-01-16T10:35:04.257Z,6.06
2019-01-16T10:40:04.251Z,6.06
2019-01-16T10:45:04.233Z,6
2019-01-16T10:50:04.221Z,6
2019-01-16T10:55:04.275Z,6
2019-01-16T11:00:04.262Z,6.06
2019-01-16T11:05:04.261Z,6.06
2019-01-16T11:10:04.261Z,6.13
2019-01-16T11:15:04.273Z,6.13
2019-01-16T11:20:04.247Z,6.13
2019-01-16T11:25:04.307Z,6.19
2019-01-16T11:30:04.269Z,6.19
2019-01-16T11:35:04.303Z,6.19
2019-01-16T11:40:04.720Z,6.25
2019-01-16T11:45:04.303Z,6.31
2019-01-16T11:50:04.307Z,6.38
2019-01-16T11:55:04.282Z,6.44
2019-01-16T12:00:04.286Z,6.5
2019-01-16T12:05:04.307Z,6.5
2019-01-16T12:10:04.291Z,6.56
2019-01-16T12:15:04.291Z,6.63
2019-01-16T12:20:04.294Z,6.63
2019-01-16T12:25:04.285Z,6.69
2019-01-16T12:30:04.283Z,6.69
2019-01-16T12:35:04.423Z,6.69
2019-01-16T12:40:04.291Z,6.69
2019-01-16T12:45:04.251Z,6.63
2019-01-16T12:50:04.324Z,6.63
2019-01-16T12:55:04.285Z,6.63
2019-01-16T13:00:04.330Z,6.69
2019-01-16T13:05:04.370Z,6.75
2019-01-16T13:10:04.347Z,6.75
2019-01-16T13:15:04.327Z,6.75
2019-01-16T13:20:04.305Z,6.75
2019-01-16T13:25:04.301Z,6.75
2019-01-16T13:30:04.318Z,6.81
2019-01-16T13:35:04.298Z,6.81
2019-01-16T13:40:04.466Z,6.75
2019-01-16T13:45:04.327Z,6.69
2019-01-16T13:50:04.305Z,6.56
2019-01-16T13:55:04.324Z,6.44
2019-01-16T14:00:04.340Z,6.38
2019-01-16T14:05:04.371Z,6.38
2019-01-16T14:10:04.308Z,6.31
2019-01-16T14:15:04.329Z,6.31
2019-01-16T14:20:04.327Z,6.31
2019-01-16T14:25:04.287Z,6.25
2019-01-16T14:30:04.315Z,6.19
2019-01-16T14:35:04.312Z,6.13
2019-01-16T14:40:04.321Z,6.06
2019-01-16T14:45:04.296Z,6
2019-01-16T14:50:04.340Z,6
2019-01-16T14:55:06.187Z,5.94
2019-01-16T15:00:04.324Z,5.88
2019-01-16T15:05:04.352Z,5.88
2019-01-16T15:10:04.340Z,5.81
2019-01-16T15:15:04.332Z,5.81
2019-01-16T15:20:04.359Z,5.75
2019-01-16T15:25:04.386Z,5.69
2019-01-16T15:30:04.342Z,5.69
2019-01-16T15:35:04.356Z,5.63
2019-01-16T15:40:04.305Z,5.63
2019-01-16T15:45:04.360Z,5.63
2019-01-16T15:50:04.316Z,5.56
2019-01-16T15:55:04.382Z,5.56
2019-01-16T16:00:04.363Z,5.5
2019-01-16T16:05:04.347Z,5.44
2019-01-16T16:10:04.346Z,5.38
2019-01-16T16:15:04.371Z,5.38
2019-01-16T16:20:04.362Z,5.38
2019-01-16T16:25:04.401Z,5.31
2019-01-16T16:30:04.315Z,5.31
2019-01-16T16:35:04.370Z,5.25
2019-01-16T16:40:04.355Z,5.19
2019-01-16T16:45:04.403Z,5.06
2019-01-16T16:50:04.332Z,5
2019-01-16T16:55:04.374Z,4.88
2019-01-16T17:00:04.408Z,4.75
2019-01-16T17:05:04.367Z,4.56
2019-01-16T17:10:04.413Z,4.5
2019-01-16T17:15:04.362Z,4.38
2019-01-16T17:20:04.361Z,4.31
2019-01-16T17:25:04.362Z,4.25
2019-01-16T17:30:04.386Z,4.25
2019-01-16T17:35:04.371Z,4.19
2019-01-16T17:40:04.382Z,4.13
2019-01-16T17:45:04.377Z,4.06
2019-01-16T17:50:04.374Z,4
2019-01-16T17:55:04.389Z,4
2019-01-16T18:00:04.364Z,3.94
2019-01-16T18:05:04.417Z,3.94
2019-01-16T18:10:04.495Z,4
2019-01-16T18:15:04.399Z,3.94
2019-01-16T18:20:04.415Z,3.94
2019-01-16T18:25:04.403Z,3.88
2019-01-16T18:30:04.420Z,3.81
2019-01-16T18:35:04.383Z,3.75
2019-01-16T18:40:04.350Z,3.69
2019-01-16T18:45:04.445Z,3.75
2019-01-16T18:50:04.387Z,3.81
2019-01-16T18:55:04.393Z,3.81
2019-01-16T19:00:04.452Z,3.88
2019-01-16T19:05:04.428Z,3.88
2019-01-16T19:10:04.395Z,3.88
2019-01-16T19:15:04.418Z,3.88
2019-01-16T19:20:04.448Z,3.88
2019-01-16T19:25:04.420Z,3.94
2019-01-16T19:30:04.476Z,3.94
2019-01-16T19:35:04.398Z,3.94
2019-01-16T19:40:04.402Z,3.94
2019-01-16T19:45:04.400Z,3.94
2019-01-16T19:50:04.408Z,3.94
2019-01-16T19:55:04.407Z,3.88
2019-01-16T20:00:04.421Z,3.88
2019-01-16T20:05:04.408Z,3.81
2019-01-16T20:10:04.381Z,3.81
2019-01-16T20:15:04.413Z,3.81
2019-01-16T20:20:04.413Z,3.81
2019-01-16T20:25:04.413Z,3.81
2019-01-16T20:30:04.461Z,3.81
2019-01-16T20:35:09.820Z,3.88
2019-01-16T20:40:04.421Z,3.88
2019-01-16T20:45:04.439Z,3.88
2019-01-16T20:50:04.392Z,3.81
2019-01-16T20:55:04.446Z,3.75
2019-01-16T21:00:04.429Z,3.75
2019-01-16T21:05:04.475Z,3.75
2019-01-16T21:10:04.483Z,3.75
2019-01-16T21:15:04.450Z,3.81
2019-01-16T21:20:04.438Z,3.81
2019-01-16T21:25:04.473Z,3.75
2019-01-16T21:30:04.443Z,3.75
2019-01-16T21:35:04.442Z,3.75
2019-01-16T21:40:04.434Z,3.69
2019-01-16T21:45:04.433Z,3.63
2019-01-16T21:50:04.407Z,3.56
2019-01-16T21:55:04.474Z,3.56
2019-01-16T22:00:04.442Z,3.56
2019-01-16T22:05:04.442Z,3.5
2019-01-16T22:10:04.453Z,3.5
2019-01-16T22:15:04.454Z,3.5
2019-01-16T22:20:04.447Z,3.5
2019-01-16T22:25:04.445Z,3.56
2019-01-16T22:30:04.459Z,3.63
2019-01-16T22:35:04.452Z,3.63
2019-01-16T22:40:04.458Z,3.69
2019-01-16T22:45:04.469Z,3.69
2019-01-16T22:50:04.419Z,3.75
2019-01-16T22:55:04.478Z,3.75
2019-01-16T23:00:04.460Z,3.75
2019-01-16T23:05:04.473Z,3.81
2019-01-16T23:10:04.476Z,3.88
2019-01-16T23:15:04.457Z,3.94
2019-01-16T23:20:04.481Z,3.94
2019-01-16T23:25:04.440Z,4
2019-01-16T23:30:04.490Z,4
2019-01-16T23:35:04.444Z,4
2019-01-16T23:40:04.483Z,3.94
2019-01-16T23:45:04.467Z,3.94
2019-01-16T23:50:04.479Z,3.94
2019-01-16T23:55:04.565Z,4
